createdAt,value
2023-05-07T00:00:19.041Z,98319.56
2023-05-07T00:02:48.881Z,98312.53
2023-05-07T00:05:16.185Z,98309.97
2023-05-07T00:07:43.062Z,98321.47
2023-05-07T00:10:11.496Z,98328.31
2023-05-07T00:12:38.249Z,98329.19
2023-05-07T00:15:05.683Z,98329.28
2023-05-07T00:17:32.482Z,98334.13
2023-05-07T00:19:58.962Z,98329.91
2023-05-07T00:22:25.530Z,98341.59
2023-05-07T00:24:52.040Z,98334.78
2023-05-07T00:27:18.535Z,98338.09
2023-05-07T00:29:45.037Z,98335.66
2023-05-07T00:32:11.681Z,98330.25
2023-05-07T00:34:38.270Z,98332.94
2023-05-07T00:37:06.614Z,98333.16
2023-05-07T00:39:33.357Z,98329.97
2023-05-07T00:42:01.646Z,98320.09
2023-05-07T00:44:29.406Z,98316.06
2023-05-07T00:46:57.933Z,98318.22
2023-05-07T00:49:38.552Z,98322.88
2023-05-07T00:52:07.670Z,98328.31
2023-05-07T00:54:35.198Z,98328.38
2023-05-07T00:57:03.499Z,98328.09
2023-05-07T00:59:30.232Z,98323.25
2023-05-07T01:01:58.807Z,98327.88
2023-05-07T01:04:25.781Z,98327.91
2023-05-07T01:06:54.735Z,98332.22
2023-05-07T01:09:21.964Z,98332.81
2023-05-07T01:11:50.016Z,98328.44
2023-05-07T01:14:17.236Z,98319.28
2023-05-07T01:16:43.793Z,98322.50
2023-05-07T01:19:12.551Z,98323.09
2023-05-07T01:21:39.726Z,98325.75
2023-05-07T01:24:06.801Z,98324.69
2023-05-07T01:26:33.680Z,98324.16
2023-05-07T01:29:00.200Z,98324.16
2023-05-07T01:31:26.900Z,98329.84
2023-05-07T01:33:54.836Z,98321.97
2023-05-07T01:36:23.963Z,98315.47
2023-05-07T01:38:51.079Z,98311.16
2023-05-07T01:41:17.567Z,98312.84
2023-05-07T01:43:44.364Z,98325.00
2023-05-07T01:46:11.938Z,98315.03
2023-05-07T01:48:39.519Z,98315.59
2023-05-07T01:51:07.104Z,98319.63
2023-05-07T01:53:38.245Z,98320.44
2023-05-07T01:56:05.164Z,98319.34
2023-05-07T01:58:31.752Z,98324.22
2023-05-07T02:00:58.222Z,98322.31
2023-05-07T02:03:24.741Z,98322.88
2023-05-07T02:05:51.365Z,98326.91
2023-05-07T02:08:17.805Z,98323.16
2023-05-07T02:10:44.273Z,98324.75
2023-05-07T02:13:10.891Z,98322.03
2023-05-07T02:15:37.375Z,98322.03
2023-05-07T02:18:10.035Z,98307.44
2023-05-07T02:20:36.572Z,98311.78
2023-05-07T02:23:03.130Z,98307.44
2023-05-07T02:25:30.231Z,98313.38
2023-05-07T02:27:56.843Z,98320.16
2023-05-07T02:30:23.397Z,98319.91
2023-05-07T02:32:49.977Z,98320.16
2023-05-07T02:35:16.631Z,98316.66
2023-05-07T02:37:43.461Z,98313.94
2023-05-07T02:40:11.016Z,98315.00
2023-05-07T02:42:37.774Z,98315.00
2023-05-07T02:45:04.716Z,98315.84
2023-05-07T02:47:31.379Z,98322.06
2023-05-07T02:49:57.865Z,98320.97
2023-05-07T02:52:24.472Z,98316.66
2023-05-07T02:54:51.463Z,98309.59
2023-05-07T02:57:17.970Z,98318.25
2023-05-07T02:59:45.185Z,98311.25
2023-05-07T03:02:11.752Z,98315.28
2023-05-07T03:04:39.038Z,98308.53
2023-05-07T03:07:05.787Z,98305.06
2023-05-07T03:09:32.299Z,98311.78
2023-05-07T03:11:58.769Z,98313.94
2023-05-07T03:14:25.355Z,98315.31
2023-05-07T03:16:51.942Z,98311.53
2023-05-07T03:19:18.447Z,98316.94
2023-05-07T03:21:44.951Z,98316.91
2023-05-07T03:24:11.430Z,98309.63
2023-05-07T03:26:37.900Z,98311.78
2023-05-07T03:29:04.416Z,98312.03
2023-05-07T03:31:31.076Z,98306.63
2023-05-07T03:33:58.464Z,98301.50
2023-05-07T03:36:26.160Z,98296.66
2023-05-07T03:38:52.674Z,98304.22
2023-05-07T03:41:19.222Z,98299.34
2023-05-07T03:43:45.762Z,98302.59
2023-05-07T03:46:12.267Z,98309.88
2023-05-07T03:48:38.941Z,98317.19
2023-05-07T03:51:05.517Z,98316.63
2023-05-07T03:53:32.022Z,98321.50
2023-05-07T03:55:58.777Z,98318.53
2023-05-07T03:58:25.308Z,98322.06
2023-05-07T04:00:51.809Z,98337.72
2023-05-07T04:03:18.339Z,98339.88
2023-05-07T04:05:44.963Z,98335.00
2023-05-07T04:08:11.461Z,98339.34
2023-05-07T04:10:37.975Z,98335.84
2023-05-07T04:13:04.559Z,98339.59
2023-05-07T04:15:31.090Z,98339.88
2023-05-07T04:17:57.662Z,98347.22
2023-05-07T04:20:24.534Z,98337.75
2023-05-07T04:22:51.106Z,98348.53
2023-05-07T04:25:17.584Z,98343.41
2023-05-07T04:27:44.072Z,98356.63
2023-05-07T04:30:11.398Z,98361.50
2023-05-07T04:32:40.073Z,98375.31
2023-05-07T04:35:07.153Z,98381.00
2023-05-07T04:37:33.840Z,98369.88
2023-05-07T04:40:01.315Z,98375.00
2023-05-07T04:42:27.960Z,98371.78
2023-05-07T04:44:55.031Z,98378.31
2023-05-07T04:47:21.519Z,98386.94
2023-05-07T04:49:47.955Z,98387.22
2023-05-07T04:52:14.385Z,98392.38
2023-05-07T04:54:40.834Z,98401.28
2023-05-07T04:57:07.795Z,98395.59
2023-05-07T04:59:34.418Z,98404.78
2023-05-07T05:02:01.303Z,98415.59
2023-05-07T05:04:28.059Z,98416.97
2023-05-07T05:06:54.527Z,98412.63
2023-05-07T05:09:21.176Z,98418.31
2023-05-07T05:11:47.672Z,98432.38
2023-05-07T05:14:14.250Z,98415.03
2023-05-07T05:16:41.057Z,98436.44
2023-05-07T05:19:07.720Z,98419.13
2023-05-07T05:21:34.291Z,98409.09
2023-05-07T05:24:00.871Z,98438.84
2023-05-07T05:26:27.372Z,98423.16
2023-05-07T05:28:53.914Z,98432.09
2023-05-07T05:31:20.427Z,98435.59
2023-05-07T05:33:46.930Z,98439.09
2023-05-07T05:36:14.182Z,98432.34
2023-05-07T05:38:41.325Z,98436.91
2023-05-07T05:41:07.827Z,98430.16
2023-05-07T05:43:34.385Z,98427.75
2023-05-07T05:46:01.779Z,98436.16
2023-05-07T05:48:30.104Z,98441.47
2023-05-07T05:50:56.610Z,98435.94
2023-05-07T05:53:23.167Z,98441.84
2023-05-07T05:55:50.594Z,98438.25
2023-05-07T05:58:17.117Z,98437.28
2023-05-07T06:00:43.660Z,98440.56
2023-05-07T06:03:11.446Z,98448.28
2023-05-07T06:05:37.935Z,98440.47
2023-05-07T06:08:04.636Z,98445.66
2023-05-07T06:10:31.681Z,98448.38
2023-05-07T06:12:58.180Z,98443.63
2023-05-07T06:15:24.636Z,98450.25
2023-05-07T06:17:51.193Z,98444.81
2023-05-07T06:20:17.709Z,98445.25
2023-05-07T06:22:44.160Z,98442.91
2023-05-07T06:25:11.023Z,98446.66
2023-05-07T06:27:37.556Z,98447.50
2023-05-07T06:30:04.390Z,98451.66
2023-05-07T06:32:30.987Z,98445.50
2023-05-07T06:34:57.518Z,98444.72
2023-05-07T06:37:23.982Z,98445.19
2023-05-07T06:39:50.532Z,98453.47
2023-05-07T06:42:17.153Z,98459.53
2023-05-07T06:44:43.595Z,98445.41
2023-05-07T06:47:10.069Z,98445.66
2023-05-07T06:49:36.570Z,98445.94
2023-05-07T06:52:03.144Z,98443.56
2023-05-07T06:54:30.085Z,98439.69
2023-05-07T06:56:56.628Z,98433.41
2023-05-07T06:59:23.207Z,98439.06
2023-05-07T07:01:49.791Z,98417.47
2023-05-07T07:04:16.413Z,98433.78
2023-05-07T07:06:42.951Z,98434.56
2023-05-07T07:09:09.517Z,98430.00
2023-05-07T07:11:36.217Z,98435.69
2023-05-07T07:14:02.737Z,98439.56
2023-05-07T07:16:29.282Z,98433.13
2023-05-07T07:18:55.899Z,98433.94
2023-05-07T07:21:22.407Z,98427.03
2023-05-07T07:23:48.917Z,98426.97
2023-05-07T07:26:15.716Z,98419.91
2023-05-07T07:28:46.563Z,98417.78
2023-05-07T07:31:13.828Z,98418.72
2023-05-07T07:33:40.825Z,98417.34
2023-05-07T07:36:08.300Z,98429.44
2023-05-07T07:38:35.202Z,98420.44
2023-05-07T07:41:02.521Z,98429.53
2023-05-07T07:43:29.143Z,98416.84
2023-05-07T07:45:55.692Z,98422.91
2023-05-07T07:48:22.319Z,98424.38
2023-05-07T07:50:54.534Z,98422.66
2023-05-07T07:53:21.303Z,98425.09
2023-05-07T07:55:47.823Z,98425.91
2023-05-07T07:58:14.376Z,98429.91
2023-05-07T08:00:40.861Z,98424.16
2023-05-07T08:03:10.756Z,98425.63
2023-05-07T08:05:37.627Z,98432.56
2023-05-07T08:08:04.364Z,98430.34
2023-05-07T08:10:30.906Z,98428.13
2023-05-07T08:12:57.538Z,98427.16
2023-05-07T08:15:24.082Z,98428.47
2023-05-07T08:17:50.615Z,98420.59
2023-05-07T08:20:17.122Z,98420.97
2023-05-07T08:22:43.657Z,98420.88
2023-05-07T08:25:10.626Z,98417.25
2023-05-07T08:27:37.167Z,98419.50
2023-05-07T08:30:04.704Z,98429.16
2023-05-07T08:32:31.278Z,98429.72
2023-05-07T08:34:57.868Z,98429.25
2023-05-07T08:37:24.402Z,98423.88
2023-05-07T08:39:50.878Z,98438.06
2023-05-07T08:42:18.242Z,98438.38
2023-05-07T08:44:48.068Z,98437.66
2023-05-07T08:47:14.846Z,98436.19
2023-05-07T08:49:41.473Z,98445.19
2023-05-07T08:52:09.844Z,98441.19
2023-05-07T08:54:38.773Z,98444.44
2023-05-07T08:57:05.342Z,98445.75
2023-05-07T08:59:31.949Z,98447.44
2023-05-07T09:01:58.789Z,98455.06
2023-05-07T09:04:25.792Z,98454.19
2023-05-07T09:06:52.724Z,98446.34
2023-05-07T09:09:22.058Z,98448.59
2023-05-07T09:11:48.582Z,98447.66
2023-05-07T09:14:15.071Z,98440.44
2023-05-07T09:16:41.815Z,98440.34
2023-05-07T09:19:08.434Z,98440.28
2023-05-07T09:21:35.064Z,98445.03
2023-05-07T09:24:01.595Z,98455.72
2023-05-07T09:26:29.279Z,98457.81
2023-05-07T09:28:55.985Z,98457.41
2023-05-07T09:31:24.558Z,98455.25
2023-05-07T09:33:51.335Z,98453.53
2023-05-07T09:36:18.837Z,98460.94
2023-05-07T09:38:46.707Z,98452.38
2023-05-07T09:41:14.488Z,98457.31
2023-05-07T09:43:41.748Z,98456.41
2023-05-07T09:46:12.521Z,98470.69
2023-05-07T09:48:41.028Z,98468.72
2023-05-07T09:51:28.085Z,98464.56
2023-05-07T09:53:55.029Z,98470.09
2023-05-07T09:56:22.427Z,98463.59
2023-05-07T09:58:50.534Z,98464.88
2023-05-07T10:01:20.275Z,98461.69
2023-05-07T10:03:47.643Z,98471.81
2023-05-07T10:06:15.556Z,98461.88
2023-05-07T10:08:44.001Z,98461.94
2023-05-07T10:11:10.927Z,98471.50
2023-05-07T10:13:39.048Z,98454.09
2023-05-07T10:16:06.442Z,98465.66
2023-05-07T10:18:33.843Z,98466.91
2023-05-07T10:21:09.683Z,98464.75
2023-05-07T10:23:37.150Z,98454.84
2023-05-07T10:26:06.276Z,98466.25
2023-05-07T10:28:39.738Z,98456.72
2023-05-07T10:31:25.465Z,98469.13
2023-05-07T10:33:54.048Z,98471.44
2023-05-07T10:36:22.407Z,98457.38
2023-05-07T10:38:48.933Z,98463.38
2023-05-07T10:41:17.563Z,98460.41
2023-05-07T10:43:46.325Z,98457.59
2023-05-07T10:46:17.378Z,98470.94
2023-05-07T10:49:02.954Z,98458.03
2023-05-07T10:51:30.987Z,98455.28
2023-05-07T10:54:19.972Z,98449.56
2023-05-07T10:56:48.650Z,98449.84
2023-05-07T10:59:21.407Z,98451.06
2023-05-07T11:01:50.885Z,98442.38
2023-05-07T11:04:18.702Z,98444.31
2023-05-07T11:07:09.479Z,98443.94
2023-05-07T11:09:54.009Z,98440.81
2023-05-07T11:12:38.913Z,98445.41
2023-05-07T11:15:09.622Z,98448.56
2023-05-07T11:17:57.312Z,98458.16
2023-05-07T11:20:56.399Z,98472.69
2023-05-07T11:23:35.349Z,98472.81
2023-05-07T11:26:06.462Z,98478.31
2023-05-07T11:28:41.112Z,98482.72
2023-05-07T11:31:08.453Z,98485.50
2023-05-07T11:33:36.323Z,98483.50
2023-05-07T11:36:04.398Z,98492.28
2023-05-07T11:38:31.691Z,98479.84
2023-05-07T11:41:05.211Z,98481.44
2023-05-07T11:43:33.465Z,98483.22
2023-05-07T11:46:08.900Z,98500.00
2023-05-07T11:48:36.151Z,98495.59
2023-05-07T11:51:09.790Z,98499.13
2023-05-07T11:53:41.313Z,98506.91
2023-05-07T11:56:15.465Z,98513.41
2023-05-07T11:58:43.318Z,98513.66
2023-05-07T12:01:11.426Z,98520.06
2023-05-07T12:03:40.912Z,98520.75
2023-05-07T12:06:07.860Z,98533.53
2023-05-07T12:08:37.126Z,98532.13
2023-05-07T12:11:03.576Z,98514.50
2023-05-07T12:13:30.164Z,98505.53
2023-05-07T12:15:57.670Z,98493.94
2023-05-07T12:18:24.909Z,98518.34
2023-05-07T12:20:52.040Z,98545.63
2023-05-07T12:23:18.692Z,98546.94
2023-05-07T12:25:48.084Z,98549.03
2023-05-07T12:28:18.742Z,98543.19
2023-05-07T12:30:47.342Z,98549.56
2023-05-07T12:33:17.801Z,98539.19
2023-05-07T12:35:44.759Z,98539.00
2023-05-07T12:38:14.171Z,98547.78
2023-05-07T12:40:52.131Z,98548.28
2023-05-07T12:43:20.800Z,98534.66
2023-05-07T12:45:49.243Z,98544.97
2023-05-07T12:48:16.231Z,98546.06
2023-05-07T12:50:42.982Z,98547.44
2023-05-07T12:53:16.051Z,98533.91
2023-05-07T12:55:43.674Z,98538.38
2023-05-07T12:58:16.979Z,98529.69
2023-05-07T13:00:44.554Z,98532.00
2023-05-07T13:03:12.311Z,98518.63
2023-05-07T13:05:38.855Z,98525.81
2023-05-07T13:08:05.409Z,98525.41
2023-05-07T13:10:31.929Z,98523.19
2023-05-07T13:12:58.473Z,98514.88
2023-05-07T13:15:25.141Z,98516.41
2023-05-07T13:17:51.698Z,98513.56
2023-05-07T13:20:18.406Z,98516.03
2023-05-07T13:22:44.899Z,98509.72
2023-05-07T13:25:11.545Z,98500.69
2023-05-07T13:27:38.257Z,98503.91
2023-05-07T13:30:06.631Z,98497.09
2023-05-07T13:32:33.231Z,98485.81
2023-05-07T13:34:59.781Z,98490.00
2023-05-07T13:37:26.263Z,98478.91
2023-05-07T13:39:52.719Z,98483.19
2023-05-07T13:42:19.220Z,98481.31
2023-05-07T13:44:46.387Z,98480.97
2023-05-07T13:47:13.017Z,98479.88
2023-05-07T13:49:39.516Z,98482.66
2023-05-07T13:52:06.246Z,98475.75
2023-05-07T13:54:32.814Z,98474.53
2023-05-07T13:56:59.296Z,98475.00
2023-05-07T13:59:25.906Z,98464.84
2023-05-07T14:01:52.419Z,98458.31
2023-05-07T14:04:18.871Z,98459.13
2023-05-07T14:06:45.314Z,98461.66
2023-05-07T14:09:14.290Z,98459.91
2023-05-07T14:11:40.893Z,98455.50
2023-05-07T14:14:07.435Z,98462.44
2023-05-07T14:16:33.995Z,98468.16
2023-05-07T14:19:00.518Z,98466.34
2023-05-07T14:21:27.044Z,98464.72
2023-05-07T14:23:53.546Z,98458.78
2023-05-07T14:26:20.835Z,98468.25
2023-05-07T14:28:47.641Z,98470.69
2023-05-07T14:31:14.284Z,98469.16
2023-05-07T14:33:42.236Z,98476.31
2023-05-07T14:36:09.156Z,98473.66
2023-05-07T14:38:35.763Z,98477.50
2023-05-07T14:41:02.350Z,98478.75
2023-05-07T14:43:28.959Z,98475.88
2023-05-07T14:45:55.546Z,98472.81
2023-05-07T14:48:22.078Z,98477.22
2023-05-07T14:50:49.512Z,98478.56
2023-05-07T14:53:16.739Z,98474.34
2023-05-07T14:55:43.443Z,98472.44
2023-05-07T14:58:10.291Z,98479.91
2023-05-07T15:00:36.906Z,98475.31
2023-05-07T15:03:09.099Z,98479.19
2023-05-07T15:05:36.328Z,98482.66
2023-05-07T15:08:02.970Z,98488.38
2023-05-07T15:10:29.773Z,98490.34
2023-05-07T15:12:56.322Z,98479.53
2023-05-07T15:15:22.825Z,98486.81
2023-05-07T15:17:49.328Z,98487.91
2023-05-07T15:20:16.025Z,98488.56
2023-05-07T15:22:42.799Z,98492.25
2023-05-07T15:25:10.674Z,98497.25
2023-05-07T15:27:37.372Z,98495.28
2023-05-07T15:30:04.657Z,98501.38
2023-05-07T15:32:31.190Z,98497.41
2023-05-07T15:34:57.939Z,98496.88
2023-05-07T15:37:24.517Z,98507.72
2023-05-07T15:39:51.112Z,98512.47
2023-05-07T15:42:17.789Z,98502.00
2023-05-07T15:44:44.276Z,98503.31
2023-05-07T15:47:10.741Z,98505.84
2023-05-07T15:49:37.168Z,98510.03
2023-05-07T15:52:03.771Z,98507.00
2023-05-07T15:54:31.141Z,98511.28
2023-05-07T15:56:57.664Z,98507.66
2023-05-07T15:59:24.331Z,98506.53
2023-05-07T16:01:51.297Z,98517.44
2023-05-07T16:04:17.909Z,98528.50
2023-05-07T16:06:47.253Z,98523.59
2023-05-07T16:09:14.500Z,98531.63
2023-05-07T16:11:41.036Z,98531.06
2023-05-07T16:14:07.569Z,98531.78
2023-05-07T16:16:35.161Z,98537.25
2023-05-07T16:19:02.225Z,98530.09
2023-05-07T16:21:29.011Z,98534.31
2023-05-07T16:23:55.476Z,98537.84
2023-05-07T16:26:21.981Z,98546.22
2023-05-07T16:28:48.697Z,98536.13
2023-05-07T16:31:15.307Z,98545.72
2023-05-07T16:33:41.805Z,98556.53
2023-05-07T16:36:08.538Z,98549.09
2023-05-07T16:38:35.123Z,98553.88
2023-05-07T16:41:01.811Z,98551.81
2023-05-07T16:43:28.421Z,98562.38
2023-05-07T16:45:55.099Z,98564.22
2023-05-07T16:48:21.946Z,98563.69
2023-05-07T16:50:48.546Z,98563.69
2023-05-07T16:53:15.117Z,98561.19
2023-05-07T16:55:41.785Z,98569.41
2023-05-07T16:58:10.094Z,98575.38
2023-05-07T17:00:49.092Z,98581.78
2023-05-07T17:03:17.009Z,98573.41
2023-05-07T17:05:43.656Z,98581.63
2023-05-07T17:08:10.285Z,98585.41
2023-05-07T17:10:36.807Z,98584.47
2023-05-07T17:13:03.635Z,98590.34
2023-05-07T17:15:30.260Z,98598.88
2023-05-07T17:17:56.863Z,98597.19
2023-05-07T17:20:23.412Z,98601.09
2023-05-07T17:22:49.925Z,98604.69
2023-05-07T17:25:16.611Z,98613.31
2023-05-07T17:27:43.128Z,98617.13
2023-05-07T17:30:10.210Z,98615.78
2023-05-07T17:32:36.857Z,98617.44
2023-05-07T17:35:04.012Z,98625.50
2023-05-07T17:37:30.546Z,98622.72
2023-05-07T17:39:57.095Z,98622.28
2023-05-07T17:42:23.621Z,98629.50
2023-05-07T17:44:50.094Z,98627.34
2023-05-07T17:47:16.975Z,98630.66
2023-05-07T17:49:43.557Z,98640.03
2023-05-07T17:52:10.341Z,98642.84
2023-05-07T17:54:36.852Z,98651.16
2023-05-07T17:57:03.678Z,98663.25
2023-05-07T17:59:30.591Z,98657.91
2023-05-07T18:01:57.188Z,98657.91
2023-05-07T18:04:26.329Z,98665.09
2023-05-07T18:06:53.209Z,98662.63
2023-05-07T18:09:19.794Z,98672.53
2023-05-07T18:11:46.287Z,98678.25
2023-05-07T18:14:12.737Z,98681.25
2023-05-07T18:16:39.296Z,98672.31
2023-05-07T18:19:05.815Z,98676.16
2023-05-07T18:21:32.612Z,98684.91
2023-05-07T18:23:59.171Z,98688.50
2023-05-07T18:26:25.762Z,98692.59
2023-05-07T18:28:52.438Z,98692.06
2023-05-07T18:31:20.609Z,98692.88
2023-05-07T18:33:47.176Z,98694.78
2023-05-07T18:36:13.873Z,98696.78
2023-05-07T18:38:42.597Z,98696.44
2023-05-07T18:41:09.208Z,98701.41
2023-05-07T18:43:36.031Z,98701.47
2023-05-07T18:46:02.731Z,98703.34
2023-05-07T18:48:29.273Z,98706.38
2023-05-07T18:50:56.804Z,98700.22
2023-05-07T18:53:23.860Z,98710.88
2023-05-07T18:55:51.650Z,98709.75
2023-05-07T18:58:19.964Z,98709.47
2023-05-07T19:00:50.258Z,98715.16
2023-05-07T19:03:17.221Z,98710.31
2023-05-07T19:05:44.705Z,98716.28
2023-05-07T19:08:11.552Z,98714.13
2023-05-07T19:10:38.257Z,98717.09
2023-05-07T19:13:05.063Z,98719.63
2023-05-07T19:15:31.582Z,98722.03
2023-05-07T19:17:58.086Z,98726.69
2023-05-07T19:20:24.620Z,98729.94
2023-05-07T19:22:51.137Z,98735.91
2023-05-07T19:25:18.282Z,98741.28
2023-05-07T19:27:44.869Z,98739.13
2023-05-07T19:30:11.650Z,98741.84
2023-05-07T19:32:38.790Z,98753.00
2023-05-07T19:35:05.911Z,98749.19
2023-05-07T19:37:32.468Z,98751.66
2023-05-07T19:40:04.885Z,98751.91
2023-05-07T19:42:31.820Z,98748.97
2023-05-07T19:44:58.317Z,98759.03
2023-05-07T19:47:24.831Z,98757.06
2023-05-07T19:49:51.358Z,98761.47
2023-05-07T19:52:17.890Z,98759.28
2023-05-07T19:54:44.452Z,98761.97
2023-05-07T19:57:11.031Z,98767.09
2023-05-07T19:59:37.571Z,98772.28
2023-05-07T20:02:04.137Z,98773.91
2023-05-07T20:04:33.107Z,98772.56
2023-05-07T20:06:59.754Z,98782.09
2023-05-07T20:09:26.240Z,98774.50
2023-05-07T20:11:52.773Z,98776.13
2023-05-07T20:14:19.251Z,98782.66
2023-05-07T20:16:45.939Z,98780.78
2023-05-07T20:19:12.440Z,98782.13
2023-05-07T20:21:38.909Z,98781.00
2023-05-07T20:24:06.448Z,98779.16
2023-05-07T20:26:32.915Z,98779.44
2023-05-07T20:28:59.424Z,98784.88
2023-05-07T20:31:26.055Z,98785.97
2023-05-07T20:33:53.016Z,98780.53
2023-05-07T20:36:19.517Z,98781.66
2023-05-07T20:38:46.164Z,98787.06
2023-05-07T20:41:14.252Z,98782.97
2023-05-07T20:43:40.831Z,98791.41
2023-05-07T20:46:07.793Z,98788.13
2023-05-07T20:48:34.786Z,98794.94
2023-05-07T20:51:02.486Z,98797.94
2023-05-07T20:53:30.322Z,98789.25
2023-05-07T20:55:56.949Z,98797.56
2023-05-07T20:58:26.536Z,98802.78
2023-05-07T21:00:53.316Z,98798.19
2023-05-07T21:03:20.514Z,98798.44
2023-05-07T21:05:54.476Z,98802.25
2023-05-07T21:08:21.166Z,98800.66
2023-05-07T21:10:48.115Z,98809.84
2023-05-07T21:13:15.383Z,98810.66
2023-05-07T21:15:46.026Z,98807.13
2023-05-07T21:18:13.229Z,98811.78
2023-05-07T21:20:39.714Z,98816.13
2023-05-07T21:23:06.411Z,98817.75
2023-05-07T21:25:33.074Z,98815.59
2023-05-07T21:27:59.961Z,98813.69
2023-05-07T21:30:26.481Z,98816.09
2023-05-07T21:32:55.411Z,98804.44
2023-05-07T21:35:22.055Z,98820.72
2023-05-07T21:37:48.574Z,98818.53
2023-05-07T21:40:15.327Z,98815.28
2023-05-07T21:42:42.049Z,98822.34
2023-05-07T21:45:09.012Z,98819.09
2023-05-07T21:47:35.576Z,98818.81
2023-05-07T21:50:02.480Z,98823.97
2023-05-07T21:52:29.073Z,98821.81
2023-05-07T21:54:55.654Z,98821.78
2023-05-07T21:57:22.244Z,98819.91
2023-05-07T21:59:48.701Z,98823.97
2023-05-07T22:02:15.210Z,98829.41
2023-05-07T22:04:41.752Z,98830.22
2023-05-07T22:07:08.235Z,98826.69
2023-05-07T22:09:34.781Z,98821.28
2023-05-07T22:12:01.885Z,98833.22
2023-05-07T22:14:28.403Z,98825.59
2023-05-07T22:16:54.887Z,98825.88
2023-05-07T22:19:21.515Z,98820.69
2023-05-07T22:21:48.002Z,98825.06
2023-05-07T22:24:14.495Z,98819.63
2023-05-07T22:26:41.004Z,98824.25
2023-05-07T22:29:07.506Z,98822.63
2023-05-07T22:31:34.042Z,98826.97
2023-05-07T22:34:01.270Z,98829.69
2023-05-07T22:36:27.824Z,98829.44
2023-05-07T22:38:54.264Z,98830.50
2023-05-07T22:41:21.039Z,98829.94
2023-05-07T22:43:47.568Z,98832.09
2023-05-07T22:46:14.326Z,98826.69
2023-05-07T22:48:40.915Z,98829.94
2023-05-07T22:51:13.997Z,98831.84
2023-05-07T22:53:40.563Z,98826.69
2023-05-07T22:56:07.679Z,98825.88
2023-05-07T22:58:34.534Z,98828.31
2023-05-07T23:01:02.366Z,98827.22
2023-05-07T23:03:29.017Z,98821.00
2023-05-07T23:05:55.768Z,98830.75
2023-05-07T23:08:23.244Z,98818.81
2023-05-07T23:10:49.823Z,98825.34
2023-05-07T23:13:17.523Z,98819.94
2023-05-07T23:15:44.356Z,98818.00
2023-05-07T23:18:11.240Z,98815.88
2023-05-07T23:20:39.696Z,98819.66
2023-05-07T23:23:06.280Z,98817.19
2023-05-07T23:25:32.863Z,98808.78
2023-05-07T23:27:59.310Z,98809.34
2023-05-07T23:30:26.041Z,98807.19
2023-05-07T23:32:52.907Z,98801.47
2023-05-07T23:35:19.668Z,98803.94
2023-05-07T23:37:46.280Z,98804.75
2023-05-07T23:40:13.026Z,98810.41
2023-05-07T23:42:39.637Z,98810.97
2023-05-07T23:45:06.546Z,98807.72
2023-05-07T23:47:33.053Z,98797.16
2023-05-07T23:49:59.565Z,98801.47
2023-05-07T23:52:26.088Z,98795.81
2023-05-07T23:54:52.577Z,98797.97
2023-05-07T23:57:19.148Z,98803.41
2023-05-07T23:59:45.687Z,98806.09
